createdAt,value
2023-01-30T00:01:48.157Z,6.47
2023-01-30T00:04:19.064Z,8.38
2023-01-30T00:06:46.946Z,8.43
2023-01-30T00:09:15.693Z,7.60
2023-01-30T00:11:45.015Z,6.93
2023-01-30T00:14:12.929Z,7.60
2023-01-30T00:16:42.028Z,7.45
2023-01-30T00:19:10.042Z,6.47
2023-01-30T00:21:38.019Z,7.80
2023-01-30T00:24:06.363Z,6.55
2023-01-30T00:26:34.387Z,7.80
2023-01-30T00:29:03.785Z,7.97
2023-01-30T00:31:31.982Z,7.43
2023-01-30T00:33:59.949Z,9.27
2023-01-30T00:36:27.931Z,6.95
2023-01-30T00:38:58.105Z,7.25
2023-01-30T00:41:46.148Z,5.78
2023-01-30T00:44:33.025Z,8.52
2023-01-30T00:47:06.898Z,7.50
2023-01-30T00:49:34.802Z,9.85
2023-01-30T00:52:03.148Z,9.00
2023-01-30T00:54:31.925Z,9.07
2023-01-30T00:56:59.893Z,8.05
2023-01-30T00:59:30.178Z,8.70
2023-01-30T01:01:58.081Z,8.02
2023-01-30T01:04:27.025Z,8.48
2023-01-30T01:06:55.026Z,8.80
2023-01-30T01:09:23.065Z,10.48
2023-01-30T01:11:50.939Z,9.43
2023-01-30T01:14:18.910Z,10.02
2023-01-30T01:16:48.415Z,10.27
2023-01-30T01:19:16.530Z,9.68
2023-01-30T01:21:44.460Z,8.50
2023-01-30T01:24:14.505Z,8.25
2023-01-30T01:26:46.026Z,9.88
2023-01-30T01:29:15.085Z,10.63
2023-01-30T01:31:43.424Z,11.43
2023-01-30T01:34:13.395Z,10.48
2023-01-30T01:36:54.412Z,10.02
2023-01-30T01:39:23.423Z,11.52
2023-01-30T01:41:50.992Z,8.90
2023-01-30T01:44:19.085Z,11.82
2023-01-30T01:46:51.927Z,8.65
2023-01-30T01:49:25.717Z,8.85
2023-01-30T01:51:58.354Z,9.77
2023-01-30T01:54:33.182Z,9.38
2023-01-30T01:57:04.017Z,7.85
2023-01-30T01:59:36.431Z,8.27
2023-01-30T02:02:09.902Z,8.00
2023-01-30T02:04:59.581Z,9.63
2023-01-30T02:07:29.611Z,8.77
2023-01-30T02:09:58.609Z,7.20
2023-01-30T02:12:26.789Z,7.35
2023-01-30T02:14:55.791Z,7.88
2023-01-30T02:17:24.201Z,6.80
2023-01-30T02:19:59.319Z,7.03
2023-01-30T02:22:44.644Z,8.20
2023-01-30T02:25:37.215Z,8.23
2023-01-30T02:28:30.442Z,9.25
2023-01-30T02:31:17.729Z,9.43
2023-01-30T02:33:55.999Z,9.70
2023-01-30T02:36:37.194Z,9.45
2023-01-30T02:39:19.496Z,8.48
2023-01-30T02:41:58.527Z,8.98
2023-01-30T02:44:33.615Z,9.20
2023-01-30T02:47:09.108Z,8.77
2023-01-30T02:49:41.181Z,7.22
2023-01-30T02:52:12.525Z,9.43
2023-01-30T02:54:40.728Z,8.55
2023-01-30T02:57:19.638Z,8.35
2023-01-30T02:59:54.679Z,9.73
2023-01-30T03:02:50.565Z,9.95
2023-01-30T03:05:40.100Z,8.07
2023-01-30T03:08:18.981Z,8.40
2023-01-30T03:10:55.894Z,9.10
2023-01-30T03:13:34.884Z,8.77
2023-01-30T03:16:07.650Z,8.88
2023-01-30T03:18:41.285Z,9.60
2023-01-30T03:21:09.459Z,8.32
2023-01-30T03:23:37.417Z,9.43
2023-01-30T03:26:07.815Z,9.18
2023-01-30T03:28:36.623Z,9.02
2023-01-30T03:31:05.808Z,9.48
2023-01-30T03:33:33.800Z,11.73
2023-01-30T03:36:03.111Z,11.55
2023-01-30T03:38:31.336Z,10.35
2023-01-30T03:40:59.327Z,9.55
2023-01-30T03:43:27.256Z,11.27
2023-01-30T03:45:55.303Z,10.35
2023-01-30T03:48:23.360Z,10.07
2023-01-30T03:50:53.693Z,9.15
2023-01-30T03:53:22.976Z,9.02
2023-01-30T03:55:51.211Z,9.45
2023-01-30T03:58:25.034Z,9.70
2023-01-30T04:00:57.131Z,9.13
2023-01-30T04:03:25.518Z,7.90
2023-01-30T04:05:57.371Z,8.88
2023-01-30T04:08:26.989Z,6.78
2023-01-30T04:10:55.055Z,8.95
2023-01-30T04:13:24.052Z,8.52
2023-01-30T04:15:52.033Z,10.13
2023-01-30T04:18:40.197Z,7.70
2023-01-30T04:21:16.764Z,9.07
2023-01-30T04:23:47.219Z,9.25
2023-01-30T04:26:15.505Z,6.50
2023-01-30T04:28:44.479Z,8.65
2023-01-30T04:31:13.943Z,7.63
2023-01-30T04:33:45.371Z,7.15
2023-01-30T04:36:14.437Z,7.30
2023-01-30T04:38:43.417Z,5.53
2023-01-30T04:41:12.795Z,5.82
2023-01-30T04:43:43.440Z,5.82
2023-01-30T04:46:11.269Z,5.78
2023-01-30T04:48:39.617Z,5.38
2023-01-30T04:51:07.768Z,7.03
2023-01-30T04:53:38.528Z,6.50
2023-01-30T04:56:07.858Z,6.18
2023-01-30T04:58:37.276Z,4.63
2023-01-30T05:02:13.828Z,4.80
2023-01-30T05:05:39.434Z,4.05
2023-01-30T05:09:08.717Z,4.50
2023-01-30T05:12:35.066Z,4.35
2023-01-30T05:16:02.937Z,5.22
2023-01-30T05:19:29.467Z,4.43
2023-01-30T05:22:55.931Z,4.05
2023-01-30T05:26:23.106Z,3.92
2023-01-30T05:29:51.088Z,4.40
2023-01-30T05:33:19.530Z,5.32
2023-01-30T05:40:13.463Z,3.38
2023-01-30T05:43:39.959Z,5.20
2023-01-30T05:47:07.140Z,3.40
2023-01-30T05:50:34.981Z,3.95
2023-01-30T05:54:01.430Z,3.35
2023-01-30T05:57:27.889Z,3.40
2023-01-30T06:00:54.544Z,3.38
2023-01-30T06:04:23.700Z,4.47
2023-01-30T06:07:51.529Z,4.03
2023-01-30T06:11:18.322Z,3.83
2023-01-30T06:14:44.814Z,4.05
2023-01-30T06:18:11.281Z,3.17
2023-01-30T06:21:37.866Z,2.85
2023-01-30T06:25:06.527Z,3.50
2023-01-30T06:28:33.068Z,2.83
2023-01-30T06:31:59.687Z,2.45
2023-01-30T06:35:26.078Z,4.05
2023-01-30T06:38:52.502Z,3.13
2023-01-30T06:42:20.454Z,3.03
2023-01-30T06:45:46.919Z,3.15
2023-01-30T06:49:13.435Z,3.40
2023-01-30T06:52:41.575Z,3.88
2023-01-30T06:56:08.745Z,3.03
2023-01-30T06:59:36.870Z,4.15
2023-01-30T07:03:03.344Z,2.95
2023-01-30T07:06:29.949Z,3.28
2023-01-30T07:10:07.360Z,2.15
2023-01-30T07:13:34.618Z,2.95
2023-01-30T07:17:02.287Z,2.97
2023-01-30T07:20:30.156Z,2.30
2023-01-30T07:23:56.762Z,2.17
2023-01-30T07:26:25.359Z,1.67
2023-01-30T07:28:55.838Z,2.00
2023-01-30T07:31:25.135Z,1.90
2023-01-30T07:34:35.375Z,1.83
2023-01-30T07:40:14.625Z,1.52
2023-01-30T07:43:41.235Z,1.77
2023-01-30T07:47:10.086Z,1.67
2023-01-30T07:50:12.475Z,2.70
2023-01-30T07:52:40.485Z,2.47
2023-01-30T07:55:12.960Z,1.83
2023-01-30T07:57:53.291Z,1.17
2023-01-30T08:00:21.578Z,2.45
2023-01-30T08:02:50.908Z,3.22
2023-01-30T08:05:18.954Z,1.63
2023-01-30T08:07:57.802Z,0.75
2023-01-30T08:10:26.097Z,2.72
2023-01-30T08:12:54.062Z,1.40
2023-01-30T08:15:23.074Z,1.48
2023-01-30T08:17:56.749Z,0.95
2023-01-30T08:20:25.448Z,1.42
2023-01-30T08:22:53.455Z,1.55
2023-01-30T08:25:22.031Z,1.67
2023-01-30T08:27:49.948Z,1.13
2023-01-30T08:30:19.286Z,1.63
2023-01-30T08:32:47.544Z,1.98
2023-01-30T08:35:17.090Z,1.65
2023-01-30T08:37:45.403Z,3.05
2023-01-30T08:40:17.131Z,2.47
2023-01-30T08:42:45.950Z,1.52
2023-01-30T08:45:14.321Z,2.05
2023-01-30T08:47:42.515Z,1.60
2023-01-30T08:50:11.806Z,2.03
2023-01-30T08:52:41.105Z,2.47
2023-01-30T08:55:10.372Z,1.65
2023-01-30T08:57:38.400Z,1.25
2023-01-30T09:00:07.495Z,1.77
2023-01-30T09:02:35.551Z,2.20
2023-01-30T09:05:03.608Z,2.47
2023-01-30T09:07:31.601Z,1.95
2023-01-30T09:10:01.222Z,1.80
2023-01-30T09:12:29.177Z,1.85
2023-01-30T09:15:55.656Z,1.73
2023-01-30T09:19:09.363Z,1.30
2023-01-30T09:21:38.884Z,1.98
2023-01-30T09:24:07.572Z,1.52
2023-01-30T09:27:35.385Z,1.33
2023-01-30T09:31:02.591Z,1.50
2023-01-30T09:34:29.162Z,2.03
2023-01-30T09:37:55.792Z,1.30
2023-01-30T09:41:31.245Z,2.55
2023-01-30T09:45:17.546Z,1.70
2023-01-30T09:48:54.989Z,1.48
2023-01-30T09:52:47.402Z,2.80
2023-01-30T09:56:16.905Z,2.67
2023-01-30T09:59:50.105Z,1.90
2023-01-30T10:02:48.598Z,1.90
2023-01-30T10:06:16.303Z,2.05
2023-01-30T10:09:52.777Z,1.60
2023-01-30T10:13:37.830Z,1.60
2023-01-30T10:16:29.766Z,1.35
2023-01-30T10:23:47.494Z,1.92
2023-01-30T10:27:16.586Z,2.10
2023-01-30T10:30:46.170Z,1.80
2023-01-30T10:33:44.939Z,1.85
2023-01-30T10:36:28.109Z,2.15
2023-01-30T10:40:01.265Z,1.63
2023-01-30T10:43:33.647Z,2.17
2023-01-30T10:47:27.919Z,1.95
2023-01-30T10:50:51.312Z,1.73
2023-01-30T10:54:24.427Z,1.50
2023-01-30T10:57:59.554Z,2.22
2023-01-30T11:01:32.968Z,2.65
2023-01-30T11:05:05.332Z,2.08
2023-01-30T11:08:34.285Z,1.58
2023-01-30T11:12:00.911Z,1.25
2023-01-30T11:15:39.692Z,1.60
2023-01-30T11:19:22.978Z,1.77
2023-01-30T11:22:55.025Z,1.67
2023-01-30T11:26:29.422Z,1.65
2023-01-30T11:29:00.398Z,1.88
2023-01-30T11:32:29.090Z,1.30
2023-01-30T11:36:04.553Z,1.70
2023-01-30T11:39:34.820Z,2.95
2023-01-30T11:43:00.050Z,1.73
2023-01-30T11:46:30.095Z,2.25
2023-01-30T11:50:19.631Z,2.65
2023-01-30T11:53:52.218Z,1.45
2023-01-30T11:57:22.122Z,1.60
2023-01-30T12:00:53.564Z,2.35
2023-01-30T12:04:23.695Z,1.50
2023-01-30T12:08:12.678Z,1.13
2023-01-30T12:11:44.973Z,1.92
2023-01-30T12:15:33.037Z,1.88
2023-01-30T12:18:06.426Z,1.38
2023-01-30T12:20:49.407Z,1.08
2023-01-30T12:23:22.103Z,2.00
2023-01-30T12:26:00.172Z,1.50
2023-01-30T12:28:36.877Z,1.50
2023-01-30T12:31:14.268Z,1.08
2023-01-30T12:33:42.264Z,2.65
2023-01-30T12:36:17.809Z,1.10
2023-01-30T12:38:58.310Z,1.52
2023-01-30T12:41:41.144Z,2.58
2023-01-30T12:44:29.363Z,1.80
2023-01-30T12:47:18.595Z,0.98
2023-01-30T12:50:21.081Z,1.20
2023-01-30T12:53:10.922Z,2.30
2023-01-30T12:55:49.435Z,2.33
2023-01-30T12:58:26.684Z,1.40
2023-01-30T13:01:10.352Z,1.42
2023-01-30T13:03:44.735Z,1.20
2023-01-30T13:06:32.566Z,1.05
2023-01-30T13:09:15.302Z,1.58
2023-01-30T13:11:54.102Z,1.08
2023-01-30T13:14:30.450Z,0.85
2023-01-30T13:17:15.785Z,0.77
2023-01-30T13:19:51.177Z,0.80
2023-01-30T13:22:25.082Z,0.70
2023-01-30T13:25:04.099Z,1.10
2023-01-30T13:27:37.906Z,0.88
2023-01-30T13:30:11.043Z,1.83
2023-01-30T13:32:44.567Z,1.83
2023-01-30T13:35:19.070Z,1.70
2023-01-30T13:37:50.033Z,1.08
2023-01-30T13:40:21.015Z,2.88
2023-01-30T13:42:53.349Z,1.60
2023-01-30T13:45:25.248Z,1.38
2023-01-30T13:48:05.980Z,1.60
2023-01-30T13:50:50.607Z,1.92
2023-01-30T13:53:25.967Z,1.70
2023-01-30T13:55:59.051Z,1.90
2023-01-30T13:58:43.785Z,1.63
2023-01-30T14:01:14.219Z,1.90
2023-01-30T14:03:44.049Z,1.45
2023-01-30T14:06:36.663Z,1.10
2023-01-30T14:09:19.210Z,1.48
2023-01-30T14:11:58.666Z,1.77
2023-01-30T14:14:30.883Z,1.35
2023-01-30T14:17:11.855Z,2.42
2023-01-30T14:19:43.446Z,1.20
2023-01-30T14:22:21.960Z,1.45
2023-01-30T14:25:29.147Z,2.17
2023-01-30T14:28:50.867Z,1.50
2023-01-30T14:31:52.190Z,1.25
2023-01-30T14:34:45.610Z,1.40
2023-01-30T14:37:57.116Z,1.60
2023-01-30T14:40:35.251Z,1.63
2023-01-30T14:43:48.201Z,1.73
2023-01-30T14:46:57.870Z,1.38
2023-01-30T14:49:33.780Z,1.10
2023-01-30T14:52:04.076Z,2.47
2023-01-30T14:54:42.210Z,2.15
2023-01-30T14:57:23.764Z,2.65
2023-01-30T15:00:14.222Z,3.38
2023-01-30T15:02:49.072Z,1.60
2023-01-30T15:05:21.071Z,2.15
2023-01-30T15:07:54.961Z,2.08
2023-01-30T15:10:33.971Z,1.48
2023-01-30T15:13:25.969Z,2.53
2023-01-30T15:16:06.819Z,1.77
2023-01-30T15:18:55.458Z,2.13
2023-01-30T15:21:37.337Z,2.10
2023-01-30T15:24:31.443Z,2.05
2023-01-30T15:27:08.233Z,2.60
2023-01-30T15:30:07.820Z,1.80
2023-01-30T15:32:35.856Z,2.30
2023-01-30T15:35:25.761Z,2.95
2023-01-30T15:37:56.115Z,2.05
2023-01-30T15:40:27.630Z,2.28
2023-01-30T15:43:14.198Z,1.83
2023-01-30T15:46:07.157Z,2.05
2023-01-30T15:48:48.294Z,3.00
2023-01-30T15:51:20.763Z,1.88
2023-01-30T15:53:49.015Z,2.63
2023-01-30T15:56:23.090Z,2.70
2023-01-30T15:58:51.996Z,2.65
2023-01-30T16:01:22.130Z,2.40
2023-01-30T16:03:53.253Z,2.30
2023-01-30T16:06:29.645Z,2.15
2023-01-30T16:09:03.819Z,2.97
2023-01-30T16:11:39.132Z,2.50
2023-01-30T16:14:12.062Z,2.88
2023-01-30T16:16:43.642Z,2.65
2023-01-30T16:19:22.293Z,2.33
2023-01-30T16:21:50.756Z,2.85
2023-01-30T16:24:21.828Z,2.30
2023-01-30T16:26:55.203Z,2.72
2023-01-30T16:30:21.069Z,2.58
2023-01-30T16:32:49.514Z,2.17
2023-01-30T16:35:32.531Z,3.17
2023-01-30T16:38:03.100Z,2.05
2023-01-30T16:40:43.513Z,1.48
2023-01-30T16:43:23.396Z,1.02
2023-01-30T16:46:24.708Z,1.83
2023-01-30T16:48:52.823Z,1.63
2023-01-30T16:51:25.395Z,1.38
2023-01-30T16:54:00.868Z,2.05
2023-01-30T16:56:29.555Z,0.85
2023-01-30T16:59:01.599Z,2.33
2023-01-30T17:01:40.945Z,1.30
2023-01-30T17:04:18.801Z,1.85
2023-01-30T17:06:53.261Z,1.88
2023-01-30T17:09:43.610Z,2.20
2023-01-30T17:12:44.558Z,2.00
2023-01-30T17:15:32.606Z,1.85
2023-01-30T17:18:00.751Z,1.48
2023-01-30T17:20:39.163Z,3.00
2023-01-30T17:23:10.900Z,2.47
2023-01-30T17:25:44.149Z,2.42
2023-01-30T17:28:18.483Z,2.38
2023-01-30T17:30:51.395Z,3.30
2023-01-30T17:33:19.529Z,3.90
2023-01-30T17:35:47.620Z,2.17
2023-01-30T17:38:15.491Z,2.28
2023-01-30T17:40:43.887Z,1.60
2023-01-30T17:43:13.074Z,2.47
2023-01-30T17:45:41.486Z,2.10
2023-01-30T17:48:13.786Z,2.03
2023-01-30T17:50:43.127Z,2.35
2023-01-30T17:53:11.100Z,4.00
2023-01-30T17:55:39.367Z,2.40
2023-01-30T17:58:16.940Z,1.77
2023-01-30T18:00:44.888Z,2.90
2023-01-30T18:03:14.584Z,3.38
2023-01-30T18:05:42.981Z,1.42
2023-01-30T18:08:11.084Z,1.83
2023-01-30T18:10:39.023Z,1.23
2023-01-30T18:13:12.197Z,1.50
2023-01-30T18:15:40.265Z,2.30
2023-01-30T18:18:12.885Z,1.42
2023-01-30T18:20:45.845Z,1.70
2023-01-30T18:23:14.774Z,1.70
2023-01-30T18:25:42.759Z,1.42
2023-01-30T18:28:12.058Z,1.80
2023-01-30T18:30:40.078Z,2.17
2023-01-30T18:33:08.134Z,2.13
2023-01-30T18:35:38.465Z,1.65
2023-01-30T18:38:07.785Z,1.65
2023-01-30T18:40:35.692Z,2.03
2023-01-30T18:43:06.226Z,3.20
2023-01-30T18:45:34.198Z,1.63
2023-01-30T18:48:02.143Z,1.95
2023-01-30T18:50:30.192Z,1.48
2023-01-30T18:52:58.919Z,1.95
2023-01-30T18:55:28.270Z,2.20
2023-01-30T18:57:56.200Z,3.00
2023-01-30T19:00:24.741Z,3.22
2023-01-30T19:02:53.419Z,2.65
2023-01-30T19:05:21.635Z,1.95
2023-01-30T19:07:49.651Z,4.18
2023-01-30T19:10:18.462Z,3.25
2023-01-30T19:13:05.448Z,2.08
2023-01-30T19:15:36.149Z,2.47
2023-01-30T19:18:04.223Z,3.35
2023-01-30T19:20:32.213Z,2.42
2023-01-30T19:23:00.186Z,2.72
2023-01-30T19:25:28.120Z,2.78
2023-01-30T19:27:57.444Z,3.15
2023-01-30T19:30:25.437Z,2.65
2023-01-30T19:32:58.663Z,2.08
2023-01-30T19:35:28.420Z,3.03
2023-01-30T19:38:00.189Z,2.03
2023-01-30T19:40:28.214Z,3.08
2023-01-30T19:43:09.241Z,2.50
2023-01-30T19:45:39.356Z,2.15
2023-01-30T19:48:08.629Z,2.97
2023-01-30T19:50:36.840Z,2.35
2023-01-30T19:53:05.255Z,2.70
2023-01-30T19:55:34.045Z,2.25
2023-01-30T19:58:04.669Z,2.65
2023-01-30T20:00:32.750Z,1.63
2023-01-30T20:03:00.741Z,2.03
2023-01-30T20:05:28.680Z,1.85
2023-01-30T20:07:59.185Z,2.20
2023-01-30T20:10:27.102Z,1.77
2023-01-30T20:12:55.326Z,2.70
2023-01-30T20:15:26.924Z,2.13
2023-01-30T20:17:57.850Z,2.20
2023-01-30T20:20:25.796Z,2.92
2023-01-30T20:22:53.849Z,2.47
2023-01-30T20:25:21.838Z,1.63
2023-01-30T20:27:49.817Z,1.95
2023-01-30T20:30:23.027Z,2.90
2023-01-30T20:32:54.736Z,2.58
2023-01-30T20:35:22.794Z,2.42
2023-01-30T20:37:50.825Z,2.13
2023-01-30T20:40:19.450Z,3.10
2023-01-30T20:42:48.733Z,4.07
2023-01-30T20:45:16.749Z,1.88
2023-01-30T20:47:44.746Z,2.42
2023-01-30T20:50:14.233Z,2.15
2023-01-30T20:52:43.548Z,2.65
2023-01-30T20:55:11.540Z,2.97
2023-01-30T20:57:46.311Z,2.83
2023-01-30T21:00:14.816Z,2.28
2023-01-30T21:02:45.526Z,2.50
2023-01-30T21:05:16.425Z,3.05
2023-01-30T21:07:47.351Z,1.67
2023-01-30T21:10:15.440Z,2.90
2023-01-30T21:12:43.346Z,2.17
2023-01-30T21:15:11.309Z,3.30
2023-01-30T21:17:41.981Z,2.45
2023-01-30T21:20:11.411Z,2.75
2023-01-30T21:22:40.761Z,2.38
2023-01-30T21:25:08.996Z,2.67
2023-01-30T21:27:39.928Z,2.85
2023-01-30T21:30:09.579Z,2.53
2023-01-30T21:32:37.833Z,2.47
2023-01-30T21:35:06.611Z,1.38
2023-01-30T21:37:54.087Z,1.60
2023-01-30T21:40:40.798Z,2.90
2023-01-30T21:43:17.824Z,1.55
2023-01-30T21:45:46.005Z,2.08
2023-01-30T21:48:14.281Z,1.30
2023-01-30T21:50:42.357Z,1.70
2023-01-30T21:53:10.369Z,2.10
2023-01-30T21:55:40.249Z,2.10
2023-01-30T21:58:08.263Z,1.35
2023-01-30T22:00:36.766Z,1.60
2023-01-30T22:03:05.307Z,2.30
2023-01-30T22:05:37.827Z,1.23
2023-01-30T22:08:07.297Z,1.30
2023-01-30T22:10:35.353Z,1.83
2023-01-30T22:13:04.764Z,1.30
2023-01-30T22:15:33.759Z,1.45
2023-01-30T22:18:04.078Z,1.98
2023-01-30T22:20:32.213Z,2.30
2023-01-30T22:23:00.211Z,1.45
2023-01-30T22:25:28.154Z,0.80
2023-01-30T22:27:56.368Z,1.15
2023-01-30T22:30:25.729Z,1.33
2023-01-30T22:32:55.023Z,0.85
2023-01-30T22:35:23.068Z,1.73
2023-01-30T22:37:50.955Z,2.38
2023-01-30T22:40:19.255Z,1.60
2023-01-30T22:42:49.023Z,0.95
2023-01-30T22:45:17.439Z,0.43
2023-01-30T22:47:47.004Z,1.77
2023-01-30T22:50:15.132Z,1.92
2023-01-30T22:52:43.127Z,1.75
2023-01-30T22:55:11.163Z,1.10
2023-01-30T22:57:39.344Z,1.00
2023-01-30T23:00:08.918Z,1.38
2023-01-30T23:02:36.966Z,1.42
2023-01-30T23:05:07.505Z,1.00
2023-01-30T23:07:36.836Z,0.88
2023-01-30T23:10:05.458Z,1.98
2023-01-30T23:12:51.066Z,2.25
2023-01-30T23:15:19.346Z,1.90
2023-01-30T23:18:04.906Z,2.25
2023-01-30T23:20:36.747Z,1.88
2023-01-30T23:23:06.837Z,2.92
2023-01-30T23:25:35.354Z,2.03
2023-01-30T23:28:03.343Z,1.65
2023-01-30T23:30:34.315Z,1.70
2023-01-30T23:33:02.291Z,1.67
2023-01-30T23:35:30.288Z,1.77
2023-01-30T23:38:19.055Z,1.20
2023-01-30T23:40:48.682Z,1.55
2023-01-30T23:43:17.267Z,1.92
2023-01-30T23:45:45.257Z,2.53
2023-01-30T23:48:15.062Z,1.70
2023-01-30T23:50:43.115Z,1.92
2023-01-30T23:53:12.639Z,2.20
2023-01-30T23:55:40.539Z,1.38
2023-01-30T23:58:08.545Z,2.72
